createdAt,value
2022-09-20T00:01:14.263Z,68.00
2022-09-20T00:03:46.254Z,68.20
2022-09-20T00:06:19.551Z,68.30
2022-09-20T00:08:47.608Z,68.50
2022-09-20T00:11:27.210Z,68.60
2022-09-20T00:13:56.774Z,68.70
2022-09-20T00:16:30.548Z,68.70
2022-09-20T00:18:59.148Z,68.80
2022-09-20T00:21:28.947Z,68.80
2022-09-20T00:23:57.649Z,68.80
2022-09-20T00:26:26.001Z,69.10
2022-09-20T00:28:53.116Z,69.10
2022-09-20T00:31:20.550Z,69.30
2022-09-20T00:34:06.200Z,69.30
2022-09-20T00:36:33.687Z,69.40
2022-09-20T00:39:02.423Z,69.50
2022-09-20T00:41:30.903Z,69.60
2022-09-20T00:43:59.109Z,69.50
2022-09-20T00:46:43.010Z,69.80
2022-09-20T00:49:20.335Z,69.90
2022-09-20T00:51:52.226Z,69.90
2022-09-20T00:54:20.737Z,69.90
2022-09-20T00:56:48.947Z,70.10
2022-09-20T00:59:28.140Z,70.20
2022-09-20T01:02:03.781Z,70.20
2022-09-20T01:04:30.773Z,70.00
2022-09-20T01:07:02.103Z,69.90
2022-09-20T01:09:29.175Z,70.00
2022-09-20T01:11:58.457Z,70.10
2022-09-20T01:14:26.467Z,70.10
2022-09-20T01:17:00.432Z,70.10
2022-09-20T01:19:51.880Z,70.20
2022-09-20T01:22:30.170Z,70.20
2022-09-20T01:25:06.371Z,70.30
2022-09-20T01:27:43.700Z,70.10
2022-09-20T01:30:26.022Z,70.10
2022-09-20T01:33:20.865Z,70.10
2022-09-20T01:35:51.620Z,70.20
2022-09-20T01:38:28.237Z,70.20
2022-09-20T01:41:06.038Z,70.30
2022-09-20T01:43:53.111Z,70.60
2022-09-20T01:46:35.254Z,70.80
2022-09-20T01:49:25.126Z,70.80
2022-09-20T01:52:34.441Z,71.00
2022-09-20T01:55:22.456Z,71.00
2022-09-20T01:58:13.380Z,71.10
2022-09-20T02:00:52.421Z,71.20
2022-09-20T02:04:01.254Z,71.20
2022-09-20T02:06:57.996Z,71.50
2022-09-20T02:09:40.632Z,71.40
2022-09-20T02:12:50.670Z,71.30
2022-09-20T02:15:48.850Z,71.30
2022-09-20T02:19:03.013Z,71.30
2022-09-20T02:21:47.743Z,71.20
2022-09-20T02:24:47.034Z,71.20
2022-09-20T02:27:35.588Z,71.10
2022-09-20T02:30:08.109Z,71.30
2022-09-20T02:32:56.959Z,71.60
2022-09-20T02:35:42.634Z,71.50
2022-09-20T02:38:31.154Z,71.50
2022-09-20T02:41:35.619Z,71.50
2022-09-20T02:44:10.658Z,71.40
2022-09-20T02:46:52.732Z,71.40
2022-09-20T02:49:38.117Z,71.50
2022-09-20T02:52:26.108Z,71.60
2022-09-20T02:55:10.309Z,71.70
2022-09-20T02:58:07.830Z,71.60
2022-09-20T03:00:45.947Z,71.60
2022-09-20T03:03:18.869Z,71.80
2022-09-20T03:05:57.909Z,71.80
2022-09-20T03:08:54.022Z,71.80
2022-09-20T03:11:51.432Z,72.00
2022-09-20T03:14:29.763Z,72.00
2022-09-20T03:17:15.243Z,72.00
2022-09-20T03:20:00.869Z,72.00
2022-09-20T03:22:54.601Z,72.00
2022-09-20T03:25:38.004Z,72.00
2022-09-20T03:28:20.169Z,72.00
2022-09-20T03:31:01.618Z,72.00
2022-09-20T03:34:04.745Z,71.90
2022-09-20T03:36:51.583Z,71.90
2022-09-20T03:39:18.401Z,71.90
2022-09-20T03:42:07.400Z,71.90
2022-09-20T03:44:58.704Z,71.80
2022-09-20T03:47:54.368Z,71.80
2022-09-20T03:50:56.425Z,72.00
2022-09-20T03:53:45.161Z,72.00
2022-09-20T03:56:45.448Z,72.00
2022-09-20T03:59:36.682Z,72.00
2022-09-20T04:02:18.750Z,72.10
2022-09-20T04:04:55.467Z,72.20
2022-09-20T04:08:16.551Z,72.30
2022-09-20T04:11:08.229Z,72.30
2022-09-20T04:13:47.868Z,72.20
2022-09-20T04:16:39.907Z,72.10
2022-09-20T04:19:34.945Z,72.00
2022-09-20T04:22:03.171Z,72.00
2022-09-20T04:24:53.155Z,72.00
2022-09-20T04:27:43.813Z,71.90
2022-09-20T04:30:28.968Z,71.90
2022-09-20T04:33:05.210Z,71.90
2022-09-20T04:36:02.772Z,71.90
2022-09-20T04:38:30.437Z,72.10
2022-09-20T04:41:12.986Z,72.00
2022-09-20T04:43:52.317Z,71.90
2022-09-20T04:46:25.739Z,71.90
2022-09-20T04:49:03.275Z,72.00
2022-09-20T04:52:00.789Z,71.90
2022-09-20T04:55:06.443Z,71.90
2022-09-20T04:58:13.779Z,72.20
2022-09-20T05:00:43.844Z,72.20
2022-09-20T05:03:11.122Z,72.30
2022-09-20T05:05:56.942Z,72.30
2022-09-20T05:09:05.663Z,72.60
2022-09-20T05:11:51.770Z,72.50
2022-09-20T05:14:40.930Z,72.40
2022-09-20T05:17:35.723Z,72.20
2022-09-20T05:20:11.976Z,72.40
2022-09-20T05:22:47.326Z,72.40
2022-09-20T05:25:52.112Z,72.50
2022-09-20T05:28:22.979Z,72.50
2022-09-20T05:30:55.377Z,72.40
2022-09-20T05:33:56.487Z,72.40
2022-09-20T05:36:35.547Z,72.40
2022-09-20T05:39:14.464Z,72.60
2022-09-20T05:41:56.628Z,72.70
2022-09-20T05:45:01.465Z,72.70
2022-09-20T05:47:43.834Z,72.70
2022-09-20T05:50:14.557Z,72.80
2022-09-20T05:53:07.587Z,72.70
2022-09-20T05:56:11.662Z,72.80
2022-09-20T05:58:50.797Z,72.70
2022-09-20T06:01:37.676Z,72.70
2022-09-20T06:04:08.162Z,72.80
2022-09-20T06:07:04.170Z,72.70
2022-09-20T06:10:05.009Z,72.70
2022-09-20T06:12:58.877Z,72.70
2022-09-20T06:15:31.489Z,72.60
2022-09-20T06:18:29.372Z,72.70
2022-09-20T06:21:21.741Z,72.70
2022-09-20T06:23:48.942Z,72.50
2022-09-20T06:26:23.627Z,72.60
2022-09-20T06:28:59.744Z,72.60
2022-09-20T06:31:27.430Z,72.80
2022-09-20T06:34:10.404Z,72.90
2022-09-20T06:37:00.928Z,73.00
2022-09-20T06:39:46.339Z,73.10
2022-09-20T06:42:13.144Z,73.00
2022-09-20T06:44:43.881Z,73.00
2022-09-20T06:47:12.265Z,73.00
2022-09-20T06:49:41.342Z,73.00
2022-09-20T06:52:12.452Z,72.90
2022-09-20T06:54:40.791Z,72.90
2022-09-20T06:57:07.814Z,72.90
2022-09-20T06:59:34.621Z,73.00
2022-09-20T07:02:01.925Z,72.90
2022-09-20T07:04:28.828Z,73.10
2022-09-20T07:07:08.598Z,73.10
2022-09-20T07:09:36.175Z,73.00
2022-09-20T07:12:03.161Z,73.10
2022-09-20T07:14:30.038Z,73.00
2022-09-20T07:16:56.744Z,73.00
2022-09-20T07:19:23.613Z,72.90
2022-09-20T07:21:50.478Z,72.90
2022-09-20T07:24:17.265Z,72.80
2022-09-20T07:27:01.405Z,72.50
2022-09-20T07:29:31.601Z,72.40
2022-09-20T07:31:58.766Z,72.30
2022-09-20T07:34:26.402Z,72.20
2022-09-20T07:36:53.298Z,71.90
2022-09-20T07:39:20.246Z,71.70
2022-09-20T07:41:48.580Z,71.50
2022-09-20T07:44:22.202Z,71.40
2022-09-20T07:46:54.191Z,71.30
2022-09-20T07:49:22.305Z,71.00
2022-09-20T07:51:50.385Z,70.80
2022-09-20T07:54:17.718Z,70.50
2022-09-20T07:56:45.189Z,70.10
2022-09-20T07:59:16.564Z,69.70
2022-09-20T08:01:43.485Z,69.40
2022-09-20T08:04:11.132Z,69.00
2022-09-20T08:06:43.992Z,68.70
2022-09-20T08:09:11.757Z,68.10
2022-09-20T08:11:43.598Z,67.80
2022-09-20T08:14:15.333Z,67.50
2022-09-20T08:16:44.560Z,67.40
2022-09-20T08:19:17.797Z,67.30
2022-09-20T08:21:45.160Z,66.80
2022-09-20T08:24:12.690Z,66.20
2022-09-20T08:26:39.871Z,65.30
2022-09-20T08:29:07.138Z,65.00
2022-09-20T08:31:37.255Z,64.80
2022-09-20T08:34:06.700Z,64.60
2022-09-20T08:36:37.019Z,64.50
2022-09-20T08:42:02.164Z,64.30
2022-09-20T08:44:36.397Z,64.20
2022-09-20T08:47:06.354Z,64.00
2022-09-20T08:49:34.040Z,64.10
2022-09-20T08:52:03.206Z,64.00
2022-09-20T08:54:33.291Z,63.50
2022-09-20T08:57:09.453Z,63.20
2022-09-20T08:59:36.457Z,62.90
2022-09-20T09:02:03.487Z,62.60
2022-09-20T09:04:36.245Z,62.50
2022-09-20T09:07:03.786Z,62.60
2022-09-20T09:09:37.723Z,62.70
2022-09-20T09:12:05.210Z,62.60
2022-09-20T09:14:51.127Z,62.70
2022-09-20T09:17:29.162Z,62.30
2022-09-20T09:20:16.660Z,61.90
2022-09-20T09:22:46.097Z,62.00
2022-09-20T09:25:32.275Z,61.80
2022-09-20T09:28:08.334Z,61.10
2022-09-20T09:30:44.597Z,61.10
2022-09-20T09:33:25.274Z,61.00
2022-09-20T09:36:17.013Z,60.70
2022-09-20T09:38:45.940Z,60.50
2022-09-20T09:41:20.374Z,60.60
2022-09-20T09:43:59.371Z,60.10
2022-09-20T09:46:31.093Z,60.00
2022-09-20T09:49:10.533Z,60.10
2022-09-20T09:51:39.377Z,59.70
2022-09-20T09:54:08.205Z,59.50
2022-09-20T09:56:37.708Z,59.40
2022-09-20T09:59:18.280Z,59.40
2022-09-20T10:02:17.410Z,59.50
2022-09-20T10:05:08.605Z,59.00
2022-09-20T10:07:54.315Z,59.20
2022-09-20T10:10:51.047Z,59.60
2022-09-20T10:13:28.843Z,59.70
2022-09-20T10:16:29.104Z,59.70
2022-09-20T10:19:04.654Z,60.00
2022-09-20T10:21:41.310Z,59.80
2022-09-20T10:24:21.171Z,59.40
2022-09-20T10:27:11.281Z,59.20
2022-09-20T10:29:53.782Z,58.90
2022-09-20T10:32:51.012Z,58.90
2022-09-20T10:35:33.771Z,57.60
2022-09-20T10:38:19.843Z,57.30
2022-09-20T10:41:24.308Z,56.70
2022-09-20T10:44:20.159Z,57.10
2022-09-20T10:47:00.051Z,56.90
2022-09-20T10:49:31.090Z,56.60
2022-09-20T10:52:04.029Z,56.10
2022-09-20T10:54:46.047Z,56.50
2022-09-20T10:57:28.583Z,55.80
2022-09-20T11:00:25.136Z,55.90
2022-09-20T11:03:38.396Z,55.40
2022-09-20T11:06:15.999Z,56.10
2022-09-20T11:08:43.902Z,55.70
2022-09-20T11:11:19.020Z,55.40
2022-09-20T11:14:04.605Z,54.30
2022-09-20T11:16:47.869Z,53.30
2022-09-20T11:19:41.190Z,52.00
2022-09-20T11:22:25.026Z,51.70
2022-09-20T11:24:58.860Z,51.10
2022-09-20T11:27:39.826Z,50.50
2022-09-20T11:30:18.951Z,50.20
2022-09-20T11:33:27.288Z,49.10
2022-09-20T11:36:04.414Z,49.20
2022-09-20T11:38:53.538Z,49.00
2022-09-20T11:41:28.097Z,48.50
2022-09-20T11:44:01.094Z,48.20
2022-09-20T11:46:47.824Z,48.70
2022-09-20T11:49:20.808Z,48.30
2022-09-20T11:52:07.407Z,46.60
2022-09-20T11:54:59.399Z,45.40
2022-09-20T11:57:26.708Z,45.90
2022-09-20T11:59:57.053Z,46.20
2022-09-20T12:02:36.673Z,46.90
2022-09-20T12:05:06.422Z,47.20
2022-09-20T12:07:39.973Z,46.70
2022-09-20T12:10:28.319Z,46.80
2022-09-20T12:13:03.323Z,46.00
2022-09-20T12:15:36.331Z,45.40
2022-09-20T12:18:09.043Z,45.50
2022-09-20T12:20:36.321Z,45.70
2022-09-20T12:23:40.685Z,45.70
2022-09-20T12:26:22.903Z,44.40
2022-09-20T12:28:55.058Z,43.90
2022-09-20T12:31:21.928Z,43.80
2022-09-20T12:34:04.141Z,44.40
2022-09-20T12:36:37.013Z,44.00
2022-09-20T12:39:21.253Z,44.30
2022-09-20T12:42:01.558Z,44.70
2022-09-20T12:44:57.205Z,45.50
2022-09-20T12:47:33.439Z,45.80
2022-09-20T12:50:20.806Z,46.00
2022-09-20T12:52:53.873Z,45.80
2022-09-20T12:55:32.460Z,45.90
2022-09-20T12:58:14.074Z,46.20
2022-09-20T13:00:57.878Z,46.50
2022-09-20T13:03:32.147Z,46.70
2022-09-20T13:06:06.303Z,46.70
2022-09-20T13:08:42.785Z,46.60
2022-09-20T13:11:21.168Z,46.40
2022-09-20T13:14:04.199Z,47.10
2022-09-20T13:16:38.022Z,47.20
2022-09-20T13:19:29.121Z,47.70
2022-09-20T13:22:01.138Z,47.30
2022-09-20T13:24:39.326Z,47.40
2022-09-20T13:27:12.124Z,47.70
2022-09-20T13:29:44.898Z,47.40
2022-09-20T13:32:24.225Z,47.10
2022-09-20T13:35:07.737Z,47.20
2022-09-20T13:37:35.877Z,46.20
2022-09-20T13:40:05.438Z,46.10
2022-09-20T13:42:35.759Z,45.90
2022-09-20T13:45:04.583Z,45.30
2022-09-20T13:47:32.436Z,45.80
2022-09-20T13:50:23.660Z,44.90
2022-09-20T13:53:01.823Z,45.10
2022-09-20T13:55:38.668Z,45.30
2022-09-20T13:58:33.527Z,45.30
2022-09-20T14:01:04.636Z,45.90
2022-09-20T14:03:34.245Z,45.90
2022-09-20T14:06:04.100Z,46.10
2022-09-20T14:08:43.057Z,46.30
2022-09-20T14:11:19.677Z,46.10
2022-09-20T14:13:52.809Z,46.20
2022-09-20T14:16:21.627Z,46.00
2022-09-20T14:18:49.990Z,46.00
2022-09-20T14:21:28.733Z,45.90
2022-09-20T14:24:02.085Z,44.90
2022-09-20T14:26:36.196Z,44.10
2022-09-20T14:29:34.339Z,43.10
2022-09-20T14:32:21.666Z,42.80
2022-09-20T14:35:07.162Z,42.30
2022-09-20T14:37:50.315Z,41.80
2022-09-20T14:40:19.580Z,42.70
2022-09-20T14:42:48.448Z,42.80
2022-09-20T14:45:27.800Z,42.40
2022-09-20T14:48:11.155Z,41.50
2022-09-20T14:50:44.454Z,41.40
2022-09-20T14:53:11.227Z,41.10
2022-09-20T14:56:14.812Z,41.10
2022-09-20T14:59:13.943Z,40.50
2022-09-20T15:01:44.992Z,40.80
2022-09-20T15:04:26.011Z,40.80
2022-09-20T15:06:53.838Z,41.30
2022-09-20T15:09:22.056Z,41.80
2022-09-20T15:12:04.931Z,41.90
2022-09-20T15:14:37.523Z,41.90
2022-09-20T15:17:05.332Z,42.80
2022-09-20T15:19:32.467Z,43.10
2022-09-20T15:21:59.726Z,43.30
2022-09-20T15:24:27.494Z,43.70
2022-09-20T15:26:54.573Z,43.90
2022-09-20T15:29:21.982Z,44.20
2022-09-20T15:31:49.150Z,44.40
2022-09-20T15:34:16.354Z,45.00
2022-09-20T15:36:43.597Z,45.20
2022-09-20T15:39:10.910Z,45.00
2022-09-20T15:41:38.379Z,44.80
2022-09-20T15:44:08.988Z,45.00
2022-09-20T15:46:35.823Z,45.40
2022-09-20T15:49:05.409Z,45.50
2022-09-20T15:51:32.839Z,45.80
2022-09-20T15:54:02.411Z,46.10
2022-09-20T15:56:34.411Z,46.20
2022-09-20T15:59:07.941Z,46.50
2022-09-20T16:01:38.215Z,46.90
2022-09-20T16:04:08.058Z,47.40
2022-09-20T16:06:35.683Z,47.70
2022-09-20T16:09:03.519Z,47.70
2022-09-20T16:11:31.107Z,47.90
2022-09-20T16:13:59.449Z,47.50
2022-09-20T16:16:28.874Z,47.50
2022-09-20T16:19:14.695Z,47.40
2022-09-20T16:21:43.587Z,47.60
2022-09-20T16:24:12.572Z,47.90
2022-09-20T16:26:40.219Z,47.80
2022-09-20T16:29:07.904Z,48.10
2022-09-20T16:31:42.867Z,48.30
2022-09-20T16:34:18.488Z,48.20
2022-09-20T16:36:50.587Z,48.00
2022-09-20T16:39:19.063Z,47.90
2022-09-20T16:41:47.890Z,47.90
2022-09-20T16:44:15.726Z,47.90
2022-09-20T16:46:44.561Z,47.70
2022-09-20T16:49:13.146Z,47.70
2022-09-20T16:51:41.603Z,48.00
2022-09-20T16:54:13.430Z,48.20
2022-09-20T16:56:51.413Z,48.10
2022-09-20T16:59:23.168Z,48.20
2022-09-20T17:01:50.998Z,48.40
2022-09-20T17:04:19.043Z,48.40
2022-09-20T17:06:47.091Z,48.50
2022-09-20T17:09:15.443Z,48.50
2022-09-20T17:11:49.309Z,48.70
2022-09-20T17:14:18.724Z,48.90
2022-09-20T17:16:48.113Z,49.00
2022-09-20T17:19:20.408Z,49.20
2022-09-20T17:21:49.837Z,49.50
2022-09-20T17:24:18.616Z,49.50
2022-09-20T17:26:46.059Z,49.70
2022-09-20T17:29:16.232Z,49.70
2022-09-20T17:31:48.745Z,49.70
2022-09-20T17:34:21.764Z,49.80
2022-09-20T17:36:49.550Z,50.00
2022-09-20T17:39:17.295Z,50.10
2022-09-20T17:41:49.635Z,50.30
2022-09-20T17:44:17.831Z,50.40
2022-09-20T17:46:46.404Z,50.50
2022-09-20T17:49:16.560Z,50.70
2022-09-20T17:51:45.502Z,50.80
2022-09-20T17:54:14.080Z,51.00
2022-09-20T17:56:50.358Z,51.10
2022-09-20T17:59:20.035Z,51.30
2022-09-20T18:01:49.882Z,51.40
2022-09-20T18:04:17.725Z,51.60
2022-09-20T18:06:52.420Z,51.70
2022-09-20T18:09:22.039Z,52.00
2022-09-20T18:11:52.869Z,52.10
2022-09-20T18:14:25.725Z,52.20
2022-09-20T18:16:55.218Z,52.50
2022-09-20T18:19:22.915Z,52.70
2022-09-20T18:21:50.742Z,53.00
2022-09-20T18:24:17.640Z,53.30
2022-09-20T18:26:44.569Z,53.60
2022-09-20T18:29:18.156Z,53.90
2022-09-20T18:31:50.564Z,54.10
2022-09-20T18:34:23.388Z,54.30
2022-09-20T18:36:55.905Z,54.60
2022-09-20T18:39:28.505Z,54.90
2022-09-20T18:41:55.681Z,55.00
2022-09-20T18:44:23.460Z,55.00
2022-09-20T18:46:53.027Z,55.00
2022-09-20T18:49:21.772Z,54.90
2022-09-20T18:51:49.579Z,54.80
2022-09-20T18:54:16.992Z,54.90
2022-09-20T18:56:45.794Z,55.00
2022-09-20T18:59:20.013Z,55.10
2022-09-20T19:02:09.622Z,55.20
2022-09-20T19:05:15.000Z,55.10
2022-09-20T19:08:12.352Z,55.10
2022-09-20T19:10:46.299Z,55.10
2022-09-20T19:13:45.764Z,55.00
2022-09-20T19:16:21.514Z,55.20
2022-09-20T19:19:06.029Z,55.20
2022-09-20T19:22:04.363Z,55.30
2022-09-20T19:24:46.191Z,55.30
2022-09-20T19:27:13.954Z,55.30
2022-09-20T19:29:41.382Z,55.40
2022-09-20T19:32:17.298Z,55.50
2022-09-20T19:34:45.184Z,55.60
2022-09-20T19:37:37.732Z,55.70
2022-09-20T19:40:21.907Z,55.70
2022-09-20T19:43:18.153Z,55.70
2022-09-20T19:45:57.333Z,55.80
2022-09-20T19:48:47.112Z,55.80
2022-09-20T19:51:15.187Z,55.90
2022-09-20T19:53:42.415Z,56.00
2022-09-20T19:56:27.688Z,56.10
2022-09-20T19:58:56.259Z,56.20
2022-09-20T20:01:25.237Z,56.30
2022-09-20T20:03:53.607Z,56.40
2022-09-20T20:06:45.323Z,56.40
2022-09-20T20:09:41.913Z,56.40
2022-09-20T20:12:14.888Z,56.60
2022-09-20T20:14:49.066Z,56.50
2022-09-20T20:17:34.268Z,56.60
2022-09-20T20:20:10.650Z,56.70
2022-09-20T20:23:08.930Z,56.70
2022-09-20T20:25:35.985Z,56.80
2022-09-20T20:28:02.988Z,56.90
2022-09-20T20:30:29.868Z,57.00
2022-09-20T20:33:00.596Z,57.10
2022-09-20T20:35:27.815Z,57.20
2022-09-20T20:37:54.704Z,57.40
2022-09-20T20:40:21.908Z,57.60
2022-09-20T20:42:49.414Z,57.80
2022-09-20T20:45:16.145Z,57.90
2022-09-20T20:47:44.221Z,58.10
2022-09-20T20:50:16.016Z,58.20
2022-09-20T20:52:42.960Z,58.30
2022-09-20T20:55:10.725Z,58.40
2022-09-20T20:57:38.008Z,58.40
2022-09-20T21:00:05.346Z,58.50
2022-09-20T21:02:32.168Z,58.70
2022-09-20T21:04:59.213Z,58.80
2022-09-20T21:07:26.125Z,59.00
2022-09-20T21:09:53.626Z,59.10
2022-09-20T21:12:21.167Z,59.30
2022-09-20T21:14:48.077Z,59.40
2022-09-20T21:17:15.111Z,59.50
2022-09-20T21:19:42.082Z,59.60
2022-09-20T21:22:08.987Z,59.60
2022-09-20T21:24:35.905Z,59.70
2022-09-20T21:27:05.260Z,59.90
2022-09-20T21:29:32.474Z,60.00
2022-09-20T21:31:59.262Z,60.10
2022-09-20T21:34:26.284Z,60.40
2022-09-20T21:36:53.526Z,60.50
2022-09-20T21:39:20.342Z,60.60
2022-09-20T21:41:47.274Z,60.80
2022-09-20T21:44:14.998Z,60.90
2022-09-20T21:46:42.410Z,61.00
2022-09-20T21:49:11.669Z,61.10
2022-09-20T21:51:39.506Z,61.30
2022-09-20T21:54:06.576Z,61.40
2022-09-20T21:56:36.369Z,61.50
2022-09-20T21:59:04.560Z,61.60
2022-09-20T22:01:34.610Z,61.70
2022-09-20T22:04:05.864Z,61.80
2022-09-20T22:06:38.674Z,61.90
2022-09-20T22:09:08.459Z,61.90
2022-09-20T22:11:39.133Z,62.00
2022-09-20T22:14:07.036Z,62.10
2022-09-20T22:16:39.025Z,62.20
2022-09-20T22:19:08.011Z,62.20
2022-09-20T22:21:38.131Z,62.30
2022-09-20T22:24:10.596Z,62.40
2022-09-20T22:26:46.500Z,62.40
2022-09-20T22:29:14.237Z,62.60
2022-09-20T22:31:46.487Z,62.60
2022-09-20T22:34:19.078Z,62.80
2022-09-20T22:36:46.193Z,62.90
2022-09-20T22:39:14.371Z,63.00
2022-09-20T22:41:42.659Z,63.00
2022-09-20T22:44:10.552Z,63.00
2022-09-20T22:46:38.539Z,63.20
2022-09-20T22:49:06.438Z,63.20
2022-09-20T22:51:34.048Z,63.30
2022-09-20T22:54:05.850Z,63.30
2022-09-20T22:56:33.179Z,63.40
2022-09-20T22:59:05.759Z,63.40
2022-09-20T23:01:38.147Z,63.50
2022-09-20T23:04:07.876Z,63.50
2022-09-20T23:06:38.041Z,63.60
2022-09-20T23:09:08.074Z,63.60
2022-09-20T23:11:36.144Z,63.60
2022-09-20T23:14:07.941Z,63.70
2022-09-20T23:16:36.865Z,63.70
2022-09-20T23:19:05.651Z,63.60
2022-09-20T23:21:34.008Z,63.60
2022-09-20T23:24:03.048Z,63.60
2022-09-20T23:26:31.882Z,63.70
2022-09-20T23:29:01.363Z,63.80
2022-09-20T23:31:29.822Z,63.90
2022-09-20T23:33:58.426Z,63.90
2022-09-20T23:36:27.716Z,63.90
2022-09-20T23:38:55.881Z,63.90
2022-09-20T23:41:24.780Z,63.90
2022-09-20T23:43:52.248Z,64.00
2022-09-20T23:46:20.549Z,64.00
2022-09-20T23:48:47.712Z,63.90
2022-09-20T23:51:17.406Z,63.90
2022-09-20T23:53:45.134Z,64.10
2022-09-20T23:56:13.067Z,64.10
2022-09-20T23:58:41.906Z,64.20
